Time;durP1;ratioP1;P1;durP2;ratioP2;P2;SDS_P1;SDS_P2;PMS_P1;PMS_P2;Temp;Humidity;BMP_temperature;BMP_pressure;BME280_temperature;BME280_humidity;BME280_pressure;Samples;Min_cycle;Max_cycle;Signal;HPM_P1;HPM_P2
2021/06/21 00:01:17;;;;;;;;;;;;;;;26.40;57.06;100190.94;2061850;28;4062;-78
2021/06/21 00:02:44;;;;;;;;;;;;;;;26.39;57.20;100190.13;2061158;28;4028;-75
2021/06/21 00:04:11;;;;;;;;;;;;;;;26.40;57.46;100176.63;2061373;28;4217;-74
2021/06/21 00:05:37;;;;;;;;;;;;;;;26.40;57.46;100177.44;2061074;28;5049;-78
2021/06/21 00:07:03;;;;;;;;;;;;;;;26.39;57.51;100170.06;2061951;28;4099;-78
2021/06/21 00:08:29;;;;;;;;;;;;;;;26.39;57.37;100163.50;2061398;28;4037;-77
2021/06/21 00:09:55;;;;;;;;;;;;;;;26.41;57.66;100181.09;2059359;28;4059;-79
2021/06/21 00:11:22;;;;;;;;;;;;;;;26.40;57.54;100171.69;2061012;28;4051;-79
2021/06/21 00:12:48;;;;;;;;;;;;;;;26.40;57.73;100170.88;2061169;28;4186;-81
2021/06/21 00:14:15;;;;;;;;;;;;;;;26.41;57.51;100169.63;2062262;28;3896;-81
2021/06/21 00:15:41;;;;;;;;;;;;;;;26.41;57.66;100166.75;2060988;28;4206;-81
2021/06/21 00:17:09;;;;;;;;;;;;;;;26.40;58.01;100162.28;2060671;28;3802;-81
2021/06/21 00:18:36;;;;;;;;;;;;;;;26.40;57.97;100165.13;2061163;28;4056;-78
2021/06/21 00:20:02;;;;;;;;;;;;;;;26.39;58.36;100157.78;2060813;28;4090;-79
2021/06/21 00:21:29;;;;;;;;;;;;;;;26.40;58.27;100168.81;2060649;28;4427;-79
2021/06/21 00:22:55;;;;;;;;;;;;;;;26.40;58.15;100156.53;2061193;28;4969;-76
2021/06/21 00:24:21;;;;;;;;;;;;;;;26.40;58.28;100153.66;2062497;28;5000;-78
2021/06/21 00:25:47;;;;;;;;;;;;;;;26.39;58.40;100160.63;2060928;28;4197;-78
2021/06/21 00:27:15;;;;;;;;;;;;;;;26.39;58.62;100160.63;2061798;28;3883;-74
2021/06/21 00:28:42;;;;;;;;;;;;;;;26.39;59.01;100158.59;2061404;28;4074;-75
2021/06/21 00:30:10;;;;;;;;;;;;;;;26.38;58.93;100158.97;2061464;28;4049;-77
2021/06/21 00:31:36;;;;;;;;;;;;;;;26.39;58.99;100167.19;2060067;28;4391;-77
2021/06/21 00:33:03;;;;;;;;;;;;;;;26.38;58.96;100164.72;2059875;28;4033;-76
2021/06/21 00:34:30;;;;;;;;;;;;;;;26.38;59.24;100165.56;2061799;28;4138;-79
2021/06/21 00:35:56;;;;;;;;;;;;;;;26.39;59.36;100163.50;2060517;28;4078;-76
2021/06/21 00:37:22;;;;;;;;;;;;;;;26.38;59.35;100158.97;2061561;28;4063;-78
2021/06/21 00:38:49;;;;;;;;;;;;;;;26.36;59.24;100159.41;2061403;28;5067;-79
2021/06/21 00:40:16;;;;;;;;;;;;;;;26.36;59.52;100155.72;2061396;28;4046;-79
2021/06/21 00:41:43;;;;;;;;;;;;;;;26.36;59.48;100153.66;2062057;28;4064;-79
2021/06/21 00:43:09;;;;;;;;;;;;;;;26.37;59.42;100154.47;2061235;28;4070;-78
2021/06/21 00:44:35;;;;;;;;;;;;;;;26.36;59.55;100145.06;2060780;28;4185;-78
2021/06/21 00:46:01;;;;;;;;;;;;;;;26.34;59.69;100138.91;2060886;28;4096;-77
2021/06/21 00:47:27;;;;;;;;;;;;;;;26.35;59.87;100145.47;2060361;28;4205;-79
2021/06/21 00:48:54;;;;;;;;;;;;;;;26.35;59.66;100139.72;2060686;28;4083;-79
2021/06/21 00:50:21;;;;;;;;;;;;;;;26.34;59.65;100138.91;2060995;28;4032;-77
2021/06/21 00:51:47;;;;;;;;;;;;;;;26.34;59.98;100143.81;2061639;28;4033;-80
2021/06/21 00:53:14;;;;;;;;;;;;;;;26.34;59.68;100149.56;2061170;28;3889;-79
2021/06/21 00:54:40;;;;;;;;;;;;;;;26.33;59.88;100148.75;2061244;28;4024;-78
2021/06/21 00:56:07;;;;;;;;;;;;;;;26.33;60.00;100145.06;2061654;28;3897;-78
2021/06/21 00:57:34;;;;;;;;;;;;;;;26.32;59.95;100155.69;2060961;28;4051;-78
2021/06/21 00:59:00;;;;;;;;;;;;;;;26.31;60.14;100151.19;2061921;28;4071;-77
2021/06/21 01:00:27;;;;;;;;;;;;;;;26.31;60.14;100154.06;2061478;28;4046;-78
2021/06/21 01:01:54;;;;;;;;;;;;;;;26.30;60.14;100158.16;2061527;28;4074;-76
2021/06/21 01:03:21;;;;;;;;;;;;;;;26.31;59.86;100150.38;2061750;28;4041;-79
2021/06/21 01:04:47;;;;;;;;;;;;;;;26.30;59.94;100148.72;2060843;28;4058;-80
2021/06/21 01:06:14;;;;;;;;;;;;;;;26.29;59.83;100129.88;2061476;28;4256;-80
2021/06/21 01:07:40;;;;;;;;;;;;;;;26.28;59.82;100134.81;2061097;28;4232;-77
2021/06/21 01:09:07;;;;;;;;;;;;;;;26.28;59.96;100142.59;2061981;28;3927;-79
2021/06/21 01:10:33;;;;;;;;;;;;;;;26.27;59.98;100132.31;2060624;28;4242;-78
2021/06/21 01:11:59;;;;;;;;;;;;;;;26.27;59.52;100143.81;2061221;28;3956;-78
2021/06/21 01:13:26;;;;;;;;;;;;;;;26.26;59.58;100137.25;2062617;28;4163;-79
2021/06/21 01:14:52;;;;;;;;;;;;;;;26.26;59.52;100134.38;2061730;28;4242;-78
2021/06/21 01:16:19;;;;;;;;;;;;;;;26.25;59.69;100135.63;2061058;28;4074;-77
2021/06/21 01:17:46;;;;;;;;;;;;;;;26.24;59.53;100133.97;2061402;28;4066;-80
2021/06/21 01:19:14;;;;;;;;;;;;;;;26.23;59.49;100131.53;2059452;28;4006;-81
2021/06/21 01:20:41;;;;;;;;;;;;;;;26.23;59.51;100143.81;2059958;28;4244;-80
2021/06/21 01:22:08;;;;;;;;;;;;;;;26.23;59.38;100125.78;2061019;28;3988;-82
2021/06/21 01:23:35;;;;;;;;;;;;;;;26.23;59.20;100134.38;2060971;28;4252;-81
2021/06/21 01:25:01;;;;;;;;;;;;;;;26.23;58.97;100134.38;2060248;28;4072;-78
2021/06/21 01:26:27;;;;;;;;;;;;;;;26.21;58.88;100135.59;2059999;28;4198;-78
2021/06/21 01:27:54;;;;;;;;;;;;;;;26.20;59.09;100122.50;2059060;28;4306;-77
2021/06/21 01:29:20;;;;;;;;;;;;;;;26.19;58.70;100126.59;2059515;28;4004;-77
2021/06/21 01:30:47;;;;;;;;;;;;;;;26.18;58.67;100119.19;2058451;28;4181;-78
2021/06/21 01:32:13;;;;;;;;;;;;;;;26.18;58.61;100121.25;2059177;28;4370;-78
2021/06/21 01:33:40;;;;;;;;;;;;;;;26.17;58.49;100120.44;2060640;28;4235;-80
2021/06/21 01:35:08;;;;;;;;;;;;;;;26.16;58.44;100115.94;2062782;28;4061;-76
2021/06/21 01:36:34;;;;;;;;;;;;;;;26.17;58.47;100116.75;2060170;28;4163;-76
2021/06/21 01:38:00;;;;;;;;;;;;;;;26.16;58.34;100113.06;2060199;28;3930;-76
2021/06/21 01:39:26;;;;;;;;;;;;;;;26.16;58.25;100118.81;2060797;28;3997;-76
2021/06/21 01:40:53;;;;;;;;;;;;;;;26.15;58.15;100107.75;2060152;28;5056;-76
2021/06/21 01:42:20;;;;;;;;;;;;;;;26.15;58.24;100119.22;2061572;28;3854;-77
2021/06/21 01:43:46;;;;;;;;;;;;;;;26.15;58.41;100119.22;2061016;28;4212;-77
2021/06/21 01:45:12;;;;;;;;;;;;;;;26.13;58.27;100121.66;2062041;28;3964;-77
2021/06/21 01:46:38;;;;;;;;;;;;;;;26.13;58.26;100119.59;2059067;28;4071;-77
2021/06/21 01:48:21;;;;;;;;;;;;;;;26.12;58.02;100123.69;2059902;28;4054;-76
2021/06/21 01:49:47;;;;;;;;;;;;;;;26.13;58.21;100127.38;2061255;28;4053;-76
2021/06/21 01:51:14;;;;;;;;;;;;;;;26.13;57.90;100128.19;2061918;28;3895;-74
2021/06/21 01:52:40;;;;;;;;;;;;;;;26.11;57.95;100122.06;2061427;28;4063;-75
2021/06/21 01:54:06;;;;;;;;;;;;;;;26.10;57.94;100129.00;2060964;28;4053;-74
2021/06/21 01:55:33;;;;;;;;;;;;;;;26.11;58.15;100130.69;2060342;28;4275;-75
2021/06/21 01:57:02;;;;;;;;;;;;;;;26.12;57.87;100134.34;2059425;28;4233;-75
2021/06/21 01:58:29;;;;;;;;;;;;;;;26.10;57.95;100134.75;2059322;28;4209;-75
2021/06/21 01:59:55;;;;;;;;;;;;;;;26.10;57.91;100143.34;2061956;28;3891;-75
2021/06/21 02:01:22;;;;;;;;;;;;;;;26.09;57.90;100144.59;2061274;28;4097;-74
2021/06/21 02:02:48;;;;;;;;;;;;;;;26.10;58.20;100145.41;2060883;28;4206;-89
2021/06/21 02:04:15;;;;;;;;;;;;;;;26.09;58.09;100150.31;2061245;28;4285;-76
2021/06/21 02:05:41;;;;;;;;;;;;;;;26.08;58.23;100145.81;2060139;28;4211;-84
2021/06/21 02:07:09;;;;;;;;;;;;;;;26.08;58.21;100147.84;2060489;28;3934;-76
2021/06/21 02:08:35;;;;;;;;;;;;;;;26.08;58.27;100157.28;2060564;28;4261;-76
2021/06/21 02:10:01;;;;;;;;;;;;;;;26.10;58.46;100168.34;2061322;28;4101;-77
2021/06/21 02:11:27;;;;;;;;;;;;;;;26.13;58.52;100181.84;2060548;28;4106;-76
2021/06/21 02:12:54;;;;;;;;;;;;;;;26.15;58.31;100176.56;2060075;28;4011;-77
2021/06/21 02:14:20;;;;;;;;;;;;;;;26.16;58.19;100190.50;2061093;28;3941;-75
2021/06/21 02:15:46;;;;;;;;;;;;;;;26.18;58.51;100204.41;2060887;28;4036;-76
2021/06/21 02:17:13;;;;;;;;;;;;;;;26.19;58.22;100209.75;2060447;28;3956;-76
2021/06/21 02:18:40;;;;;;;;;;;;;;;26.20;58.27;100207.69;2061486;28;4065;-76
2021/06/21 02:20:06;;;;;;;;;;;;;;;26.21;58.15;100215.88;2062200;28;3926;-76
2021/06/21 02:21:32;;;;;;;;;;;;;;;26.22;58.41;100222.47;2062326;28;4083;-74
2021/06/21 02:23:00;;;;;;;;;;;;;;;26.23;58.39;100203.22;2062336;28;4173;-74
2021/06/21 02:24:26;;;;;;;;;;;;;;;26.23;58.33;100204.03;2061042;28;3954;-75
2021/06/21 02:25:53;;;;;;;;;;;;;;;26.24;58.45;100202.78;2062655;28;4062;-76
2021/06/21 02:27:19;;;;;;;;;;;;;;;26.26;58.28;100205.25;2062639;28;4046;-76
2021/06/21 02:28:45;;;;;;;;;;;;;;;26.24;58.25;100207.72;2060700;28;4214;-75
2021/06/21 02:30:12;;;;;;;;;;;;;;;26.27;58.49;100195.41;2061485;28;4091;-76
2021/06/21 02:31:38;;;;;;;;;;;;;;;26.28;58.41;100199.94;2061591;28;4078;-76
2021/06/21 02:33:04;;;;;;;;;;;;;;;26.29;58.43;100198.72;2062313;28;4150;-76
2021/06/21 02:34:31;;;;;;;;;;;;;;;26.28;58.46;100240.09;2061715;28;4227;-76
2021/06/21 02:35:58;;;;;;;;;;;;;;;26.29;58.20;100388.00;2061700;28;4081;-76
2021/06/21 02:37:25;;;;;;;;;;;;;;;26.29;58.24;100420.34;2060833;28;4109;-76
2021/06/21 02:38:53;;;;;;;;;;;;;;;26.30;58.28;100427.75;2061336;28;4041;-76
2021/06/21 02:40:19;;;;;;;;;;;;;;;26.31;58.45;100425.72;2062565;28;4078;-76
2021/06/21 02:41:45;;;;;;;;;;;;;;;26.31;58.55;100412.19;2061007;28;4212;-76
2021/06/21 02:43:11;;;;;;;;;;;;;;;26.31;58.59;100417.91;2062042;28;4091;-77
2021/06/21 02:44:38;;;;;;;;;;;;;;;26.33;58.41;100414.66;2061993;28;4059;-78
2021/06/21 02:46:05;;;;;;;;;;;;;;;26.33;58.32;100406.06;2062831;28;4084;-76
2021/06/21 02:47:31;;;;;;;;;;;;;;;26.33;58.63;100398.28;2062082;28;5202;-78
2021/06/21 02:48:57;;;;;;;;;;;;;;;26.30;59.33;100399.06;2060507;28;4099;-78
2021/06/21 02:50:24;;;;;;;;;;;;;;;26.26;59.69;100389.63;2061811;28;4051;-75
2021/06/21 02:51:52;;;;;;;;;;;;;;;26.22;59.90;100377.31;2063002;28;4046;-77
2021/06/21 02:53:18;;;;;;;;;;;;;;;26.21;59.96;100375.66;2061306;28;3878;-81
2021/06/21 02:54:44;;;;;;;;;;;;;;;26.20;60.05;100382.63;2062111;28;4210;-75
2021/06/21 02:56:11;;;;;;;;;;;;;;;26.18;60.36;100379.31;2061885;28;4072;-76
2021/06/21 02:57:37;;;;;;;;;;;;;;;26.15;60.21;100372.34;2061450;28;4277;-76
2021/06/21 02:59:03;;;;;;;;;;;;;;;26.16;60.37;100364.56;2062597;28;4071;-76
2021/06/21 03:00:30;;;;;;;;;;;;;;;26.14;60.56;100364.97;2061389;28;4194;-79
2021/06/21 03:01:57;;;;;;;;;;;;;;;26.13;60.61;100360.44;2062632;28;4096;-79
2021/06/21 03:03:23;;;;;;;;;;;;;;;26.11;60.66;100347.75;2062711;28;3877;-81
2021/06/21 03:04:49;;;;;;;;;;;;;;;26.11;60.45;100342.03;2062259;28;4353;-80
2021/06/21 03:06:15;;;;;;;;;;;;;;;26.07;60.80;100323.97;2061713;28;3981;-81
2021/06/21 03:07:41;;;;;;;;;;;;;;;26.05;60.73;100321.47;2061164;28;4891;-83
2021/06/21 03:09:07;;;;;;;;;;;;;;;26.04;60.73;100328.44;2062384;28;4072;-89
2021/06/21 03:10:34;;;;;;;;;;;;;;;26.04;60.82;100322.72;2061731;28;4046;-84
2021/06/21 03:12:01;;;;;;;;;;;;;;;26.03;61.05;100318.22;2062065;28;4074;-86
2021/06/21 03:13:28;;;;;;;;;;;;;;;26.00;60.76;100304.69;2063041;28;4054;-85
2021/06/21 03:14:54;;;;;;;;;;;;;;;25.96;61.18;100310.38;2062870;28;4140;-84
2021/06/21 03:16:22;;;;;;;;;;;;;;;25.98;60.98;100305.06;2064007;28;4070;-80
2021/06/21 03:17:49;;;;;;;;;;;;;;;26.03;60.67;100300.19;2061433;28;4208;-77
2021/06/21 03:19:15;;;;;;;;;;;;;;;26.07;60.66;100298.16;2061587;28;3928;-78
2021/06/21 03:20:42;;;;;;;;;;;;;;;26.09;60.36;100296.53;2062109;28;4047;-79
2021/06/21 03:22:09;;;;;;;;;;;;;;;26.12;59.87;100300.66;2061848;28;4094;-78
2021/06/21 03:23:35;;;;;;;;;;;;;;;26.14;60.21;100298.22;2061114;28;4320;-79
2021/06/21 03:25:02;;;;;;;;;;;;;;;26.16;60.07;100295.75;2061587;28;4102;-79
2021/06/21 03:26:28;;;;;;;;;;;;;;;26.16;59.86;100296.59;2061985;28;4185;-79
2021/06/21 03:27:55;;;;;;;;;;;;;;;26.18;60.21;100284.69;2062393;28;4163;-77
2021/06/21 03:29:22;;;;;;;;;;;;;;;26.19;60.11;100275.69;2061865;28;3864;-76
2021/06/21 03:30:48;;;;;;;;;;;;;;;26.20;59.99;100265.06;2061174;28;4191;-77
2021/06/21 03:32:15;;;;;;;;;;;;;;;26.21;59.99;100246.59;2052849;28;3858;-76
2021/06/21 03:33:41;;;;;;;;;;;;;;;26.21;60.11;100235.94;2061199;28;4203;-77
2021/06/21 03:35:08;;;;;;;;;;;;;;;26.23;59.83;100229.00;2061623;28;3928;-77
2021/06/21 03:36:34;;;;;;;;;;;;;;;26.24;60.00;100219.19;2062346;28;4242;-76
2021/06/21 03:38:01;;;;;;;;;;;;;;;26.24;59.92;100217.13;2062305;28;4076;-77
2021/06/21 03:39:27;;;;;;;;;;;;;;;26.25;60.04;100215.09;2060882;28;4210;-75
2021/06/21 03:40:53;;;;;;;;;;;;;;;26.26;60.07;100211.00;2062253;28;3858;-75
2021/06/21 03:42:19;;;;;;;;;;;;;;;26.26;60.00;100205.25;2061738;28;4178;-75
2021/06/21 03:43:46;;;;;;;;;;;;;;;26.27;60.18;100201.97;2061614;28;4201;-74
2021/06/21 03:45:12;;;;;;;;;;;;;;;26.28;60.27;100191.34;2062450;28;3890;-75
2021/06/21 03:46:38;;;;;;;;;;;;;;;26.28;60.17;100182.75;2061162;28;4232;-74
2021/06/21 03:48:05;;;;;;;;;;;;;;;26.29;60.11;100175.78;2060901;28;3972;-74
2021/06/21 03:49:31;;;;;;;;;;;;;;;26.29;60.19;100167.97;2061552;28;4027;-75
2021/06/21 03:50:57;;;;;;;;;;;;;;;26.30;60.29;100172.50;2062841;28;4079;-82
2021/06/21 03:52:23;;;;;;;;;;;;;;;26.32;60.15;100174.94;2061210;28;4085;-74
2021/06/21 03:53:49;;;;;;;;;;;;;;;26.31;60.17;100165.53;2060625;28;4061;-73
2021/06/21 03:55:16;;;;;;;;;;;;;;;26.32;60.21;100155.69;2061693;28;4496;-73
2021/06/21 03:56:43;;;;;;;;;;;;;;;26.33;60.15;100156.53;2061626;28;4231;-74
2021/06/21 03:58:10;;;;;;;;;;;;;;;26.34;60.48;100155.31;2062499;28;3971;-73
2021/06/21 03:59:36;;;;;;;;;;;;;;;26.34;60.12;100147.50;2043377;28;4045;-73
2021/06/21 04:01:02;;;;;;;;;;;;;;;26.34;60.47;100141.78;2056786;28;4044;-74
2021/06/21 04:02:28;;;;;;;;;;;;;;;26.35;60.33;100142.59;2060806;28;4199;-74
2021/06/21 04:03:58;;;;;;;;;;;;;;;26.35;60.43;100134.81;2061018;28;4124;-74
2021/06/21 04:05:25;;;;;;;;;;;;;;;26.36;60.57;100125.00;2061606;28;4007;-73
2021/06/21 04:06:52;;;;;;;;;;;;;;;26.36;60.38;100119.25;2061283;28;4075;-83
2021/06/21 04:08:19;;;;;;;;;;;;;;;26.37;60.49;100115.16;2061837;28;3884;-85
2021/06/21 04:09:46;;;;;;;;;;;;;;;26.38;60.52;100115.97;2060840;28;4024;-76
2021/06/21 04:11:12;;;;;;;;;;;;;;;26.38;60.33;100102.47;2060807;28;3930;-78
2021/06/21 04:12:39;;;;;;;;;;;;;;;26.38;60.50;100108.19;2060557;28;4228;-77
2021/06/21 04:14:05;;;;;;;;;;;;;;;26.39;60.56;100104.09;2061287;28;3832;-80
2021/06/21 04:15:31;;;;;;;;;;;;;;;26.40;60.32;100104.91;2061549;28;4063;-76
2021/06/21 04:16:58;;;;;;;;;;;;;;;26.40;60.61;100104.91;2061479;28;4238;-76
2021/06/21 04:18:25;;;;;;;;;;;;;;;26.40;60.50;100088.50;2061539;28;4062;-78
2021/06/21 04:19:51;;;;;;;;;;;;;;;26.41;60.75;100080.72;2060902;28;4240;-91
2021/06/21 04:21:18;;;;;;;;;;;;;;;26.41;60.53;100080.72;2061221;28;4365;-81
2021/06/21 04:22:45;;;;;;;;;;;;;;;26.41;60.42;100081.56;2060713;28;4070;-78
2021/06/21 04:24:11;;;;;;;;;;;;;;;26.42;60.81;100090.97;2060998;28;3982;-81
2021/06/21 04:25:38;;;;;;;;;;;;;;;26.42;60.60;100093.84;2061330;28;4843;-88
2021/06/21 04:27:04;;;;;;;;;;;;;;;26.42;60.63;100094.66;2061413;28;4069;-85
2021/06/21 04:28:31;;;;;;;;;;;;;;;26.43;60.74;100095.47;2061127;28;4034;-83
2021/06/21 04:29:57;;;;;;;;;;;;;;;26.44;60.67;100100.00;2060693;28;3977;-73
2021/06/21 04:31:23;;;;;;;;;;;;;;;26.44;60.93;100097.13;2060841;28;4421;-78
2021/06/21 04:32:50;;;;;;;;;;;;;;;26.44;60.80;100097.13;2060704;28;4033;-79
2021/06/21 04:34:17;;;;;;;;;;;;;;;26.45;60.55;100095.91;2060991;28;4062;-73
2021/06/21 04:35:43;;;;;;;;;;;;;;;26.46;60.60;100093.84;2060891;28;4028;-73
2021/06/21 04:37:10;;;;;;;;;;;;;;;26.46;60.69;100099.59;2061219;28;4133;-74
2021/06/21 04:38:36;;;;;;;;;;;;;;;26.46;60.58;100094.66;2060758;28;4202;-74
2021/06/21 04:40:02;;;;;;;;;;;;;;;26.46;60.61;100085.25;2059698;28;3983;-77
2021/06/21 04:41:29;;;;;;;;;;;;;;;26.47;60.69;100066.81;2061428;28;4025;-74
2021/06/21 04:42:56;;;;;;;;;;;;;;;26.47;60.67;100044.69;2061518;28;4075;-75
2021/06/21 04:44:22;;;;;;;;;;;;;;;26.47;60.51;100041.00;2061371;28;3961;-74
2021/06/21 04:45:48;;;;;;;;;;;;;;;26.49;60.61;100032.78;2060869;28;4199;-76
2021/06/21 04:47:14;;;;;;;;;;;;;;;26.47;60.61;100030.34;2061031;28;4095;-74
2021/06/21 04:48:42;;;;;;;;;;;;;;;26.49;60.61;100027.03;2060216;28;4196;-75
2021/06/21 04:50:09;;;;;;;;;;;;;;;26.49;60.53;100027.03;2061241;28;4078;-75
2021/06/21 04:51:36;;;;;;;;;;;;;;;26.49;60.47;100013.50;2060907;28;4204;-74
2021/06/21 04:53:02;;;;;;;;;;;;;;;26.49;60.53;100007.78;2061680;28;3894;-74
2021/06/21 04:54:28;;;;;;;;;;;;;;;26.49;60.51;100019.25;2060285;28;4033;-75
2021/06/21 04:55:54;;;;;;;;;;;;;;;26.50;60.60;100028.69;2061251;28;4570;-75
2021/06/21 04:57:25;;;;;;;;;;;;;;;26.50;60.41;100032.38;2058979;28;4072;-76
2021/06/21 04:58:51;;;;;;;;;;;;;;;26.50;60.71;100026.66;2058000;28;4236;-77
2021/06/21 05:00:17;;;;;;;;;;;;;;;26.51;60.45;100025.44;2058711;28;3960;-78
2021/06/21 05:01:43;;;;;;;;;;;;;;;26.52;60.50;100029.97;2058367;28;4218;-78
2021/06/21 05:03:10;;;;;;;;;;;;;;;26.52;60.69;100041.44;2059581;28;4029;-78
2021/06/21 05:04:37;;;;;;;;;;;;;;;26.51;60.62;100045.50;2060036;28;6244;-78
2021/06/21 05:06:03;;;;;;;;;;;;;;;26.52;60.38;100044.31;2059923;28;4056;-79
2021/06/21 05:07:29;;;;;;;;;;;;;;;26.52;60.33;100041.44;2061114;28;4061;-86
2021/06/21 05:08:56;;;;;;;;;;;;;;;26.51;60.41;100054.13;2060745;28;4080;-79
2021/06/21 05:10:23;;;;;;;;;;;;;;;26.53;60.35;100048.81;2061907;28;4277;-78
2021/06/21 05:11:51;;;;;;;;;;;;;;;26.53;60.41;100053.72;2061172;28;4056;-78
2021/06/21 05:13:17;;;;;;;;;;;;;;;26.53;60.35;100068.88;2058113;28;4099;-78
2021/06/21 05:14:43;;;;;;;;;;;;;;;26.54;60.46;100076.25;2061282;28;5062;-78
2021/06/21 05:16:10;;;;;;;;;;;;;;;26.53;60.48;100083.22;2060436;28;4083;-77
2021/06/21 05:17:36;;;;;;;;;;;;;;;26.55;60.61;100097.16;2058665;28;4367;-77
2021/06/21 05:19:04;;;;;;;;;;;;;;;26.55;60.46;100100.84;2061013;28;3940;-76
2021/06/21 05:20:30;;;;;;;;;;;;;;;26.54;60.57;100110.69;2061360;28;4169;-76
2021/06/21 05:21:56;;;;;;;;;;;;;;;26.55;60.48;100108.63;2059871;28;3933;-77
2021/06/21 05:23:22;;;;;;;;;;;;;;;26.55;60.52;100111.50;2060400;28;3882;-87
2021/06/21 05:24:49;;;;;;;;;;;;;;;26.56;60.31;100110.28;2060124;28;4206;-77
2021/06/21 05:26:15;;;;;;;;;;;;;;;26.56;60.52;100107.41;2060765;28;4044;-82
2021/06/21 05:27:42;;;;;;;;;;;;;;;26.55;60.47;100100.00;2060238;28;4079;-82
2021/06/21 05:29:08;;;;;;;;;;;;;;;26.55;60.46;100098.00;2061000;28;3915;-77
2021/06/21 05:30:35;;;;;;;;;;;;;;;26.56;60.42;100091.00;2057501;28;4052;-78
2021/06/21 05:32:02;;;;;;;;;;;;;;;26.57;60.69;100100.44;2057400;28;4167;-75
2021/06/21 05:33:29;;;;;;;;;;;;;;;26.57;60.62;100101.25;2059635;28;4077;-83
2021/06/21 05:34:56;;;;;;;;;;;;;;;26.57;60.50;100109.84;2061652;28;3791;-83
2021/06/21 05:36:23;;;;;;;;;;;;;;;26.57;60.45;100112.72;2059591;28;3875;-79
2021/06/21 05:37:50;;;;;;;;;;;;;;;26.57;60.35;100109.84;2060647;28;4034;-80
2021/06/21 05:39:16;;;;;;;;;;;;;;;26.57;60.68;100112.72;2061017;28;3900;-80
2021/06/21 05:40:43;;;;;;;;;;;;;;;26.57;60.65;100114.78;2061225;28;4230;-79
2021/06/21 05:42:09;;;;;;;;;;;;;;;26.58;60.77;100122.19;2061196;28;4988;-78
2021/06/21 05:43:36;;;;;;;;;;;;;;;26.57;60.57;100132.81;2058744;28;4031;-79
2021/06/21 05:45:02;;;;;;;;;;;;;;;26.59;60.81;100141.03;2059422;28;4069;-79
2021/06/21 05:46:29;;;;;;;;;;;;;;;26.58;60.58;100136.53;2058056;28;4187;-78
2021/06/21 05:47:55;;;;;;;;;;;;;;;26.59;60.55;100147.56;2059920;28;3904;-79
2021/06/21 05:49:22;;;;;;;;;;;;;;;26.59;60.50;100155.38;2061302;28;4266;-79
2021/06/21 05:50:50;;;;;;;;;;;;;;;26.58;60.67;100154.56;2059567;28;4288;-78
2021/06/21 05:52:17;;;;;;;;;;;;;;;26.59;60.73;100158.22;2061462;28;4062;-80
2021/06/21 05:53:43;;;;;;;;;;;;;;;26.59;60.85;100155.38;2061486;28;4861;-79
2021/06/21 05:55:10;;;;;;;;;;;;;;;26.60;60.55;100152.09;2063467;28;3995;-79
2021/06/21 05:56:37;;;;;;;;;;;;;;;26.60;60.53;100151.25;2062571;28;4056;-79
2021/06/21 05:58:04;;;;;;;;;;;;;;;26.59;60.60;100161.91;2063239;28;4274;-78
2021/06/21 05:59:31;;;;;;;;;;;;;;;26.59;60.50;100156.19;2063785;28;4042;-78
2021/06/21 06:00:57;;;;;;;;;;;;;;;26.60;60.80;100152.09;2060444;28;4124;-78
2021/06/21 06:02:25;;;;;;;;;;;;;;;26.61;60.98;100138.56;2063553;28;4115;-78
2021/06/21 06:03:52;;;;;;;;;;;;;;;26.59;60.63;100133.22;2062859;28;4214;-78
2021/06/21 06:05:18;;;;;;;;;;;;;;;26.60;60.60;100145.50;2061832;28;4058;-87
2021/06/21 06:06:45;;;;;;;;;;;;;;;26.61;60.62;100164.38;2061838;28;4198;-86
2021/06/21 06:08:11;;;;;;;;;;;;;;;26.60;60.89;100160.72;2064374;28;4054;-85
2021/06/21 06:09:38;;;;;;;;;;;;;;;26.60;60.86;100157.84;2062059;28;4205;-84
2021/06/21 06:11:05;;;;;;;;;;;;;;;26.60;60.90;100151.25;2062547;28;4076;-86
2021/06/21 06:12:32;;;;;;;;;;;;;;;26.61;60.70;100165.22;2062356;28;4068;-86
2021/06/21 06:13:59;;;;;;;;;;;;;;;26.61;60.87;100159.47;2061059;28;4087;-89
2021/06/21 06:15:26;;;;;;;;;;;;;;;26.61;60.85;100148.00;2062343;28;4026;-87
2021/06/21 06:16:54;;;;;;;;;;;;;;;26.62;60.85;100163.16;2062874;28;4051;-90
2021/06/21 06:18:21;;;;;;;;;;;;;;;26.61;60.69;100159.47;2060347;28;3875;-90
2021/06/21 06:19:48;;;;;;;;;;;;;;;26.61;60.75;100153.72;2062003;28;4189;-90
2021/06/21 06:21:17;;;;;;;;;;;;;;;26.62;60.78;100145.94;2063275;28;3962;-92
2021/06/21 06:22:43;;;;;;;;;;;;;;;26.62;60.81;100148.81;2060255;28;4028;-90
2021/06/21 06:24:11;;;;;;;;;;;;;;;26.62;60.81;100149.63;2061934;28;3896;-82
2021/06/21 06:25:38;;;;;;;;;;;;;;;26.62;60.68;100141.00;2058231;28;4208;-81
2021/06/21 06:27:04;;;;;;;;;;;;;;;26.63;60.88;100133.22;2056657;28;3817;-82
2021/06/21 06:28:31;;;;;;;;;;;;;;;26.64;60.70;100143.47;2060976;28;4249;-81
2021/06/21 06:29:57;;;;;;;;;;;;;;;26.62;60.79;100143.88;2062237;28;4239;-79
2021/06/21 06:31:23;;;;;;;;;;;;;;;26.63;60.66;100141.81;2060856;28;4068;-79
2021/06/21 06:32:50;;;;;;;;;;;;;;;26.64;60.61;100141.44;2059406;28;4213;-83
2021/06/21 06:34:16;;;;;;;;;;;;;;;26.62;60.89;100149.63;2059812;28;4110;-76
2021/06/21 06:35:43;;;;;;;;;;;;;;;26.63;60.54;100167.66;2061609;28;4218;-76
2021/06/21 06:37:10;;;;;;;;;;;;;;;26.63;60.53;100168.50;2059539;28;4079;-76
2021/06/21 06:38:37;;;;;;;;;;;;;;;26.64;60.62;100160.69;2061303;28;4184;-77
2021/06/21 06:40:04;;;;;;;;;;;;;;;26.64;60.68;100169.31;2061587;28;4099;-77
2021/06/21 06:41:30;;;;;;;;;;;;;;;26.64;60.84;100169.31;2061115;28;4028;-77
2021/06/21 06:42:56;;;;;;;;;;;;;;;26.64;60.66;100172.19;2061577;28;4275;-77
2021/06/21 06:44:23;;;;;;;;;;;;;;;26.64;60.74;100155.78;2062535;28;3894;-76
2021/06/21 06:45:50;;;;;;;;;;;;;;;26.64;60.85;100158.66;2062460;28;4023;-76
2021/06/21 06:47:18;;;;;;;;;;;;;;;26.65;60.77;100151.66;2060173;28;4222;-79
2021/06/21 06:48:44;;;;;;;;;;;;;;;26.64;60.64;100147.16;2061689;28;4240;-78
2021/06/21 06:50:11;;;;;;;;;;;;;;;26.66;60.86;100138.16;2061119;28;4154;-78
2021/06/21 06:57:11;;;;;;;;;;;;;;;26.66;61.02;100135.28;2061772;28;4014;-78
2021/06/21 06:58:37;;;;;;;;;;;;;;;26.66;61.10;100123.81;2062076;28;4229;-76
2021/06/21 07:00:03;;;;;;;;;;;;;;;26.67;61.04;100133.25;2059939;28;4065;-77
2021/06/21 07:01:29;;;;;;;;;;;;;;;26.68;60.99;100140.59;2061436;28;4118;-77
2021/06/21 07:02:56;;;;;;;;;;;;;;;26.67;61.02;100151.28;2060750;28;3987;-77
2021/06/21 07:04:23;;;;;;;;;;;;;;;26.67;60.97;100144.72;2061160;28;4068;-77
2021/06/21 07:05:50;;;;;;;;;;;;;;;26.67;60.81;100142.66;2062004;28;4203;-77
2021/06/21 07:07:16;;;;;;;;;;;;;;;26.67;60.81;100138.97;2061057;28;4066;-77
2021/06/21 07:08:44;;;;;;;;;;;;;;;26.67;60.82;100145.53;2061081;28;4057;-77
2021/06/21 07:10:10;;;;;;;;;;;;;;;26.67;60.74;100145.53;2059811;28;4084;-77
2021/06/21 07:11:37;;;;;;;;;;;;;;;26.68;60.85;100134.88;2060866;28;4036;-77
2021/06/21 07:13:03;;;;;;;;;;;;;;;26.68;60.83;100134.88;2060857;28;4075;-78
2021/06/21 07:14:30;;;;;;;;;;;;;;;26.67;61.04;100119.72;2061754;28;4016;-78
2021/06/21 07:15:56;;;;;;;;;;;;;;;26.68;61.12;100118.47;2061479;28;3925;-77
2021/06/21 07:17:23;;;;;;;;;;;;;;;26.68;60.70;100134.88;2061496;28;3852;-78
2021/06/21 07:18:49;;;;;;;;;;;;;;;26.68;60.96;100135.69;2061232;28;4198;-77
2021/06/21 07:20:15;;;;;;;;;;;;;;;26.68;60.93;100135.69;2061312;28;4038;-77
2021/06/21 07:21:41;;;;;;;;;;;;;;;26.69;61.04;100145.09;2061112;28;4216;-77
2021/06/21 07:23:09;;;;;;;;;;;;;;;26.68;60.77;100157.81;2060693;28;3913;-81
2021/06/21 07:24:35;;;;;;;;;;;;;;;26.69;60.94;100159.44;2061040;28;4024;-81
2021/06/21 07:26:01;;;;;;;;;;;;;;;26.69;60.90;100165.19;2060624;28;3904;-81
2021/06/21 07:27:27;;;;;;;;;;;;;;;26.69;60.89;100168.06;2061171;28;4242;-77
2021/06/21 07:28:53;;;;;;;;;;;;;;;26.69;60.78;100165.19;2062547;28;3974;-81
2021/06/21 07:30:20;;;;;;;;;;;;;;;26.70;60.90;100169.72;2061118;28;4323;-80
2021/06/21 07:31:47;;;;;;;;;;;;;;;26.70;60.77;100176.28;2060567;28;4215;-77
2021/06/21 07:33:14;;;;;;;;;;;;;;;26.70;60.74;100181.19;2060367;28;4107;-78
2021/06/21 07:34:42;;;;;;;;;;;;;;;26.68;60.96;100183.66;2060802;28;4059;-78
2021/06/21 07:36:09;;;;;;;;;;;;;;;26.70;61.16;100187.75;2060694;28;4174;-77
2021/06/21 07:37:35;;;;;;;;;;;;;;;26.69;60.74;100176.66;2060519;28;4056;-78